Time;durP1;ratioP1;P1;durP2;ratioP2;P2;SDS_P1;SDS_P2;PMS_P1;PMS_P2;Temp;Humidity;BMP_temperature;BMP_pressure;BME280_temperature;BME280_humidity;BME280_pressure;Samples;Min_cycle;Max_cycle;Signal;HPM_P1;HPM_P2
2023/04/28 00:00:41;;;;;;;10.98;6.75;;;;;;;11.11;53.26;101226.97;5074673;28;20115;-85
2023/04/28 00:03:09;;;;;;;10.02;6.95;;;;;;;10.92;55.07;101202.94;5056603;28;20025;-85
2023/04/28 00:05:37;;;;;;;10.95;7.25;;;;;;;11.21;54.64;101240.34;5074944;28;20054;-85
2023/04/28 00:08:03;;;;;;;11.88;6.72;;;;;;;10.90;55.00;101187.88;5056964;28;20043;-85
2023/04/28 00:10:30;;;;;;;11.23;7.18;;;;;;;11.03;55.91;101203.06;5056790;28;20020;-85
2023/04/28 00:13:00;;;;;;;10.15;6.97;;;;;;;10.92;55.48;101173.84;5056444;28;20044;-85
2023/04/28 00:15:28;;;;;;;11.10;7.05;;;;;;;10.88;55.44;101152.63;5074487;28;20044;-85
2023/04/28 00:17:54;;;;;;;13.18;7.68;;;;;;;10.99;56.01;101156.28;5073258;28;20032;-85
2023/04/28 00:20:22;;;;;;;11.23;6.90;;;;;;;11.31;56.14;101222.00;5056884;28;20024;-85
2023/04/28 00:22:49;;;;;;;11.45;7.30;;;;;;;10.89;56.33;101146.47;5056605;28;20024;-86
2023/04/28 00:25:25;;;;;;;;;;;;;;;;;;;;;
2023/04/28 00:27:53;;;;;;;11.35;7.43;;;;;;;10.86;57.00;101147.28;5074469;28;20030;-86
2023/04/28 00:30:29;;;;;;;;;;;;;;;;;;;;;
2023/04/28 00:33:05;;;;;;;11.98;7.88;;;;;;;10.79;58.56;101145.41;5074213;28;20029;-86
2023/04/28 00:35:35;;;;;;;11.45;7.50;;;;;;;11.20;59.16;101214.78;5056305;28;20032;-86
2023/04/28 00:38:03;;;;;;;10.68;7.38;;;;;;;10.95;59.94;101171.22;5056502;28;20464;-86
2023/04/28 00:40:33;;;;;;;10.32;7.65;;;;;;;10.84;60.29;101150.81;5056303;28;20034;-86
2023/04/28 00:43:12;;;;;;;10.50;7.65;;;;;;;10.59;60.31;101110.78;5056264;28;20082;-86
2023/04/28 00:46:00;;;;;;;11.35;7.75;;;;;;;10.81;61.10;101148.09;5074286;28;20033;-86
2023/04/28 00:48:26;;;;;;;14.90;8.52;;;;;;;10.68;62.64;101137.34;5056449;28;20485;-87
2023/04/28 00:51:02;;;;;;;13.45;8.05;;;;;;;10.49;63.23;101100.91;5074160;28;20035;-87
2023/04/28 00:53:46;;;;;;;;;;;;;;;;;;;;;
2023/04/28 00:56:15;;;;;;;12.00;8.43;;;;;;;10.47;62.37;101100.91;5073902;28;20024;-87
2023/04/28 00:59:03;;;;;;;11.90;8.27;;;;;;;10.80;63.51;101155.16;5039196;28;20038;-87
2023/04/28 01:01:47;;;;;;;12.18;8.32;;;;;;;10.44;63.92;101099.97;5040636;28;20112;-87
2023/04/28 01:04:15;;;;;;;15.15;8.43;;;;;;;10.27;65.86;101084.75;5055758;28;20036;-87
2023/04/28 01:06:43;;;;;;;16.02;8.93;;;;;;;10.52;65.77;101138.84;5055757;28;20044;-87
2023/04/28 01:09:11;;;;;;;12.80;8.43;;;;;;;10.46;68.09;101146.69;5038811;28;20477;-86
2023/04/28 01:12:00;;;;;;;;;;;;;;;;;;;;;
2023/04/28 01:14:35;;;;;;;12.27;8.65;;;;;;;10.02;66.90;101091.38;5043214;28;20039;-86
2023/04/28 01:17:12;;;;;;;12.43;8.07;;;;;;;9.99;67.29;101078.09;5055686;28;20037;-86
2023/04/28 01:19:57;;;;;;;14.85;8.00;;;;;;;10.33;67.52;101133.28;5055708;28;20033;-87
2023/04/28 01:22:25;;;;;;;14.23;8.05;;;;;;;10.03;67.17;101069.38;5039400;28;20135;-87
2023/04/28 01:25:03;;;;;;;;;;;;;;;;;;;;;
2023/04/28 01:27:49;;;;;;;16.77;8.88;;;;;;;10.08;67.43;101050.97;5056990;28;20037;-86
2023/04/28 01:30:19;;;;;;;12.93;8.68;;;;;;;10.06;67.60;101042.13;5055100;28;20042;-87
2023/04/28 01:32:47;;;;;;;17.80;8.63;;;;;;;10.30;68.32;101093.59;5055013;28;20040;-86
2023/04/28 01:35:13;;;;;;;12.25;8.13;;;;;;;10.03;68.86;101052.66;5038908;28;20504;-86
2023/04/28 01:37:51;;;;;;;;;;;;;;;;;;;;;
2023/04/28 01:40:25;;;;;;;16.25;8.35;;;;;;;9.95;68.84;101055.16;5073442;28;20040;-86
2023/04/28 01:43:05;;;;;;;;;;;;;;;;;;;;;
2023/04/28 01:45:36;;;;;;;13.27;8.32;;;;;;;10.18;69.16;101097.78;5056814;28;20486;-86
2023/04/28 01:48:11;;;;;;;11.52;8.50;;;;;;;10.05;69.44;101072.03;5071843;28;20053;-87
2023/04/28 01:51:02;;;;;;;13.52;8.77;;;;;;;10.24;69.09;101103.22;5054783;28;20490;-87
2023/04/28 01:53:39;;;;;;;;;;;;;;;;;;;;;
2023/04/28 01:56:05;;;;;;;14.60;8.50;;;;;;;9.73;70.98;101024.00;5073215;28;20043;-87
2023/04/28 01:58:54;;;;;;;15.23;8.70;;;;;;;10.03;70.15;101086.97;5054840;28;20123;-87
2023/04/28 02:01:26;;;;;;;13.80;8.55;;;;;;;9.75;70.80;101035.47;5055140;28;20464;-87
2023/04/28 02:03:53;;;;;;;14.70;9.05;;;;;;;9.91;70.95;101061.25;5038346;28;20029;-87
2023/04/28 02:06:30;;;;;;;13.80;9.30;;;;;;;10.02;70.91;101083.44;5054985;28;20039;-87
2023/04/28 02:08:56;;;;;;;14.82;9.45;;;;;;;9.77;71.15;101042.56;5072648;28;20468;-87
2023/04/28 02:11:24;;;;;;;13.88;8.93;;;;;;;9.75;71.30;101030.19;5054596;28;20031;-88
2023/04/28 02:14:00;;;;;;;14.55;9.30;;;;;;;9.82;71.69;101049.66;5054803;28;20067;-87
2023/04/28 02:16:34;;;;;;;15.40;8.90;;;;;;;9.73;71.65;101034.56;5055866;28;20040;-87
2023/04/28 02:19:02;;;;;;;16.80;8.82;;;;;;;9.81;71.69;101046.13;5054988;28;20048;-87
2023/04/28 02:21:33;;;;;;;14.63;8.90;;;;;;;10.17;72.09;101108.31;5072659;28;20047;-87
2023/04/28 02:24:06;;;;;;;12.52;8.98;;;;;;;9.74;71.99;101016.09;5039179;28;20032;-87
2023/04/28 02:26:43;;;;;;;14.43;9.57;;;;;;;9.73;72.58;101014.34;5073136;28;20082;-87
2023/04/28 02:29:28;;;;;;;;;;;;;;;;;;;;;
2023/04/28 02:31:57;;;;;;;15.02;8.77;;;;;;;9.69;73.11;100986.13;5056483;28;20040;-87
2023/04/28 02:34:28;;;;;;;13.90;8.88;;;;;;;9.98;72.76;101028.81;5038135;28;20047;-87
2023/04/28 02:37:09;;;;;;;;;;;;;;;;;;;;;
2023/04/28 02:39:46;;;;;;;;;;;;;;;;;;;;;
2023/04/28 02:42:19;;;;;;;13.05;9.13;;;;;;;9.65;74.04;100970.22;5058417;28;20038;-87
2023/04/28 02:44:54;;;;;;;17.67;10.27;;;;;;;9.61;74.10;100969.25;5043145;28;20082;-87
2023/04/28 02:47:30;;;;;;;13.85;8.88;;;;;;;9.97;74.37;101036.69;5042687;28;20078;-88
2023/04/28 02:50:13;;;;;;;;;;;;;;;;;;;;;
2023/04/28 02:52:41;;;;;;;15.23;9.63;;;;;;;9.78;75.00;101015.28;5060461;28;20036;-87
2023/04/28 02:55:30;;;;;;;17.50;9.77;;;;;;;9.53;74.94;100957.69;5075966;28;20044;-87
2023/04/28 02:57:58;;;;;;;18.40;9.95;;;;;;;9.27;75.18;100925.59;5076152;28;20109;-87
2023/04/28 03:00:23;;;;;;;17.50;9.85;;;;;;;9.24;74.98;100934.34;5057981;28;20118;-87
2023/04/28 03:02:54;;;;;;;20.25;10.23;;;;;;;9.25;75.94;100943.16;5076289;28;20504;-87
2023/04/28 03:05:38;;;;;;;14.63;10.30;;;;;;;9.75;75.47;101030.19;5058775;28;20043;-87
2023/04/28 03:08:06;;;;;;;15.70;10.68;;;;;;;9.32;75.81;100944.16;5057687;28;20396;-86
2023/04/28 03:10:32;;;;;;;17.25;9.50;;;;;;;9.37;75.83;100946.00;5041347;28;20526;-87
2023/04/28 03:13:00;;;;;;;17.52;10.85;;;;;;;9.34;75.51;100924.88;5057611;28;20016;-86
2023/04/28 03:15:28;;;;;;;15.55;9.88;;;;;;;9.66;75.91;100990.44;5057914;28;20476;-87
2023/04/28 03:17:54;;;;;;;18.52;10.48;;;;;;;9.57;76.22;100971.81;5057824;28;20483;-87
2023/04/28 03:20:28;;;;;;;16.48;10.38;;;;;;;9.67;75.73;100986.94;5057829;28;20036;-86
2023/04/28 03:23:11;;;;;;;19.48;11.10;;;;;;;9.51;75.84;100943.59;5057487;28;20131;-87
2023/04/28 03:25:39;;;;;;;15.88;9.80;;;;;;;9.44;76.12;100934.69;5059176;28;20476;-87
2023/04/28 03:28:10;;;;;;;14.52;10.02;;;;;;;9.92;75.77;101010.22;5057373;28;20032;-87
2023/04/28 03:30:38;;;;;;;16.30;10.73;;;;;;;9.71;75.71;100973.81;5040826;28;20082;-87
2023/04/28 03:33:04;;;;;;;15.07;9.52;;;;;;;9.96;76.14;101021.72;5057572;28;20040;-87
2023/04/28 03:35:29;;;;;;;16.80;10.57;;;;;;;9.76;76.47;100993.28;5075094;28;20035;-87
2023/04/28 03:37:57;;;;;;;15.20;10.10;;;;;;;9.77;76.63;100983.59;5040925;28;20039;-87
2023/04/28 03:40:22;;;;;;;16.42;10.45;;;;;;;9.76;76.50;100973.88;5057637;28;20032;-87
2023/04/28 03:43:00;;;;;;;14.30;10.27;;;;;;;9.69;76.63;100958.84;5075498;28;20055;-87
2023/04/28 03:45:38;;;;;;;18.73;10.90;;;;;;;9.85;76.73;100974.06;5041173;28;20135;-87
2023/04/28 03:48:13;;;;;;;14.85;10.55;;;;;;;9.66;76.63;100935.94;5024895;28;20045;-86
2023/04/28 03:50:41;;;;;;;17.10;10.88;;;;;;;9.58;76.34;100927.00;5057311;28;20032;-86
2023/04/28 03:53:09;;;;;;;15.48;10.18;;;;;;;9.69;76.57;100930.69;5075031;28;20029;-86
2023/04/28 03:55:35;;;;;;;19.08;11.32;;;;;;;9.73;76.11;100935.16;5057135;28;20428;-86
2023/04/28 03:58:10;;;;;;;19.63;10.70;;;;;;;9.90;76.79;100943.34;5057128;28;20070;-86
2023/04/28 04:00:45;;;;;;;15.65;10.43;;;;;;;10.09;76.75;100962.09;5041249;28;20123;-85
2023/04/28 04:03:16;;;;;;;15.95;10.50;;;;;;;9.89;76.74;100920.47;5056585;28;20479;-86
2023/04/28 04:06:01;;;;;;;;;;;;;;;;;;;;;
2023/04/28 04:08:29;;;;;;;16.55;10.52;;;;;;;10.13;76.93;100956.88;5074765;28;20028;-87
2023/04/28 04:10:57;;;;;;;17.73;11.15;;;;;;;9.83;77.49;100895.72;5074896;28;20094;-86
2023/04/28 04:13:23;;;;;;;18.58;10.98;;;;;;;9.81;77.57;100895.72;5042166;28;20059;-87
2023/04/28 04:15:49;;;;;;;20.58;10.70;;;;;;;9.85;77.46;100907.16;5075225;28;20032;-86
2023/04/28 04:18:18;;;;;;;15.32;11.38;;;;;;;9.81;77.77;100892.16;5057240;28;20110;-84
2023/04/28 04:20:49;;;;;;;14.88;10.50;;;;;;;9.75;77.81;100883.28;5057064;28;20127;-86
2023/04/28 04:23:18;;;;;;;16.88;11.48;;;;;;;9.71;78.25;100888.50;5058132;28;20108;-86
2023/04/28 04:25:43;;;;;;;23.08;11.50;;;;;;;9.60;78.73;100891.00;5074499;28;20630;-86
2023/04/28 04:28:26;;;;;;;20.65;11.80;;;;;;;10.06;79.14;100972.59;5056495;28;20074;-86
2023/04/28 04:30:52;;;;;;;19.90;12.38;;;;;;;9.64;79.28;100923.59;5056427;28;20036;-87
2023/04/28 04:33:20;;;;;;;18.13;11.50;;;;;;;9.51;79.28;100890.84;5039752;28;20029;-86
2023/04/28 04:35:48;;;;;;;20.08;12.27;;;;;;;9.61;79.54;100898.03;5056509;28;20151;-86
2023/04/28 04:38:16;;;;;;;18.58;12.05;;;;;;;9.67;79.33;100911.31;5073858;28;20090;-86
2023/04/28 04:40:59;;;;;;;19.13;10.98;;;;;;;10.04;78.66;100952.34;5074127;28;20052;-86
2023/04/28 04:43:29;;;;;;;19.02;11.68;;;;;;;9.97;78.79;100925.81;5056628;28;20089;-87
2023/04/28 04:46:05;;;;;;;;;;;;;;;;;;;;;
2023/04/28 04:48:40;;;;;;;19.98;12.15;;;;;;;9.88;79.19;100878.19;5073518;28;20052;-87
2023/04/28 04:51:09;;;;;;;18.13;11.82;;;;;;;10.07;79.44;100918.94;5042385;28;20122;-86
2023/04/28 04:53:34;;;;;;;23.88;12.07;;;;;;;9.97;79.71;100895.03;5055654;28;20040;-86
2023/04/28 04:56:03;;;;;;;17.73;11.93;;;;;;;10.36;79.57;100951.03;5056395;28;20341;-86
2023/04/28 04:58:43;;;;;;;18.08;11.65;;;;;;;10.38;79.71;100938.75;5073387;28;20036;-86
2023/04/28 05:01:11;;;;;;;19.55;12.85;;;;;;;10.22;79.95;100914.75;5055262;28;20484;-87
2023/04/28 05:03:41;;;;;;;17.83;12.25;;;;;;;10.08;80.08;100889.91;5073193;28;20036;-87
2023/04/28 05:06:09;;;;;;;19.10;12.68;;;;;;;9.91;80.33;100865.03;5038717;28;20041;-86
2023/04/28 05:08:40;;;;;;;18.08;12.18;;;;;;;9.95;80.34;100877.41;5024075;28;20056;-86
2023/04/28 05:11:08;;;;;;;19.35;11.85;;;;;;;9.98;80.07;100877.47;5035435;28;20059;-86
2023/04/28 05:13:39;;;;;;;22.05;12.13;;;;;;;9.99;80.62;100869.56;5018947;28;20470;-86
2023/04/28 05:16:25;;;;;;;18.02;12.85;;;;;;;10.01;81.15;100864.28;5035717;28;20032;-86
2023/04/28 05:18:54;;;;;;;23.23;12.27;;;;;;;10.00;81.43;100870.44;5019167;28;20040;-87
2023/04/28 05:21:20;;;;;;;18.70;12.70;;;;;;;10.17;81.71;100884.75;5055683;28;20036;-86
2023/04/28 05:24:00;;;;;;;20.83;13.65;;;;;;;10.20;82.02;100882.16;5035404;28;20385;-86
2023/04/28 05:26:28;;;;;;;18.98;12.48;;;;;;;10.07;82.30;100842.38;5054019;28;20036;-86
2023/04/28 05:29:10;;;;;;;17.65;12.15;;;;;;;10.33;82.61;100891.16;5036300;28;20033;-86
2023/04/28 05:31:36;;;;;;;19.10;12.73;;;;;;;10.05;82.88;100860.81;5035286;28;20128;-86
2023/04/28 05:34:09;;;;;;;20.92;12.52;;;;;;;10.10;82.95;100867.03;5035187;28;20175;-86
2023/04/28 05:36:40;;;;;;;17.40;12.07;;;;;;;10.20;83.11;100882.16;5053089;28;20111;-86
2023/04/28 05:39:08;;;;;;;18.05;12.60;;;;;;;10.27;83.06;100891.94;5034918;28;20028;-85
2023/04/28 05:41:35;;;;;;;19.70;12.50;;;;;;;10.08;83.37;100865.28;5052838;28;20024;-86
2023/04/28 05:44:01;;;;;;;17.63;12.23;;;;;;;10.23;83.86;100898.03;5034697;28;20025;-85
2023/04/28 05:46:29;;;;;;;17.83;12.10;;;;;;;10.02;84.65;100851.13;5035382;28;20056;-86
2023/04/28 05:48:58;;;;;;;22.75;12.82;;;;;;;9.94;84.63;100850.13;5063068;28;20044;-86
2023/04/28 05:51:33;;;;;;;;;;;;;;;;;;;;;
2023/04/28 05:54:01;;;;;;;18.10;12.63;;;;;;;10.33;85.14;100914.03;5056948;28;20378;-86
2023/04/28 05:56:39;;;;;;;18.67;12.73;;;;;;;10.55;85.31;100942.50;5072729;28;20033;-85
2023/04/28 05:59:07;;;;;;;20.60;12.88;;;;;;;10.22;85.21;100880.41;5054705;28;20035;-85
2023/04/28 06:01:33;;;;;;;18.88;12.50;;;;;;;10.17;85.74;100862.75;5072980;28;20031;-86
2023/04/28 06:04:00;;;;;;;21.40;13.40;;;;;;;10.49;86.79;100935.41;5054502;28;20032;-86
2023/04/28 06:06:41;;;;;;;21.75;12.95;;;;;;;10.00;86.42;100844.03;5054392;28;20032;-87
2023/04/28 06:09:11;;;;;;;18.08;12.80;;;;;;;10.17;86.76;100858.34;5054475;28;20036;-86
2023/04/28 06:11:37;;;;;;;18.80;12.55;;;;;;;10.22;86.21;100848.72;5038010;28;20125;-86
2023/04/28 06:14:05;;;;;;;17.63;12.40;;;;;;;10.34;86.62;100863.00;5054554;28;20536;-85
2023/04/28 06:16:31;;;;;;;17.58;12.30;;;;;;;10.37;86.44;100858.63;5055331;28;20384;-86
2023/04/28 06:18:58;;;;;;;17.23;12.27;;;;;;;10.49;87.34;100865.78;5076165;28;20032;-86
2023/04/28 06:21:33;;;;;;;17.98;11.95;;;;;;;10.71;86.48;100904.81;5075999;28;20040;-86
2023/04/28 06:24:00;;;;;;;23.23;12.77;;;;;;;10.51;87.70;100858.78;5041875;28;20028;-86
2023/04/28 06:26:28;;;;;;;17.70;12.38;;;;;;;10.52;88.32;100863.19;5042205;28;20037;-85
2023/04/28 06:29:04;;;;;;;17.95;12.15;;;;;;;10.69;87.95;100888.03;5058066;28;20517;-85
2023/04/28 06:31:35;;;;;;;17.08;12.20;;;;;;;10.95;88.54;100930.63;5075766;28;20139;-85
2023/04/28 06:34:03;;;;;;;17.75;11.77;;;;;;;10.50;88.47;100849.97;5058286;28;20047;-85
2023/04/28 06:36:28;;;;;;;20.85;13.02;;;;;;;10.69;88.90;100887.16;5058253;28;20054;-87
2023/04/28 06:38:58;;;;;;;17.92;11.55;;;;;;;10.57;89.78;100850.03;5059012;28;20230;-87
2023/04/28 06:41:28;;;;;;;19.48;11.52;;;;;;;11.07;89.64;100942.19;5076139;28;20036;-87
2023/04/28 06:44:13;;;;;;;18.33;12.13;;;;;;;10.69;89.76;100858.09;5060278;28;20073;-88
2023/04/28 06:46:41;;;;;;;18.17;12.85;;;;;;;10.55;90.35;100854.44;5043622;28;20054;-88
2023/04/28 06:49:16;;;;;;;16.33;11.73;;;;;;;10.88;90.59;100905.00;5040810;28;20056;-87
2023/04/28 06:51:52;;;;;;;16.77;12.00;;;;;;;10.86;90.99;100887.34;5041146;28;20500;-87
2023/04/28 06:54:24;;;;;;;17.90;11.80;;;;;;;10.72;90.75;100848.44;5042339;28;20177;-85
2023/04/28 06:57:09;;;;;;;20.85;12.77;;;;;;;10.85;91.18;100859.13;5058034;28;20056;-85
2023/04/28 06:59:42;;;;;;;18.23;11.68;;;;;;;11.01;91.51;100877.81;5057379;28;20033;-85
2023/04/28 07:02:10;;;;;;;20.63;13.02;;;;;;;10.93;91.34;100844.25;5041857;28;20052;-85
2023/04/28 07:04:36;;;;;;;20.25;11.98;;;;;;;11.03;91.66;100854.00;5075413;28;20031;-86
2023/04/28 07:07:06;;;;;;;20.23;12.57;;;;;;;11.31;92.78;100892.19;5057484;28;20033;-85
2023/04/28 07:09:41;;;;;;;15.77;11.15;;;;;;;11.50;92.52;100909.09;5057479;28;20461;-85
2023/04/28 07:12:11;;;;;;;18.33;11.90;;;;;;;11.39;92.75;100885.19;5042198;28;20052;-85
2023/04/28 07:14:37;;;;;;;19.20;12.07;;;;;;;11.30;92.90;100858.66;5041086;28;20042;-85
2023/04/28 07:17:07;;;;;;;17.95;11.70;;;;;;;11.18;92.79;100840.94;5057162;28;20025;-85
2023/04/28 07:19:35;;;;;;;17.45;12.30;;;;;;;11.17;93.67;100830.31;5057264;28;20043;-85
2023/04/28 07:22:05;;;;;;;14.73;11.27;;;;;;;11.46;93.43;100871.13;5040544;28;20036;-85
2023/04/28 07:24:33;;;;;;;18.70;11.20;;;;;;;11.76;93.63;100896.03;5075119;28;20033;-85
2023/04/28 07:27:09;;;;;;;18.48;11.98;;;;;;;11.78;94.01;100896.94;5056571;28;20224;-85
2023/04/28 07:29:44;;;;;;;20.35;11.93;;;;;;;11.70;95.01;100856.31;5057146;28;20035;-85
2023/04/28 07:32:24;;;;;;;17.02;11.27;;;;;;;11.66;94.98;100844.81;5075049;28;20079;-85
2023/04/28 07:34:52;;;;;;;19.77;11.60;;;;;;;11.68;95.75;100834.22;5041032;28;20085;-85
2023/04/28 07:37:19;;;;;;;16.85;10.88;;;;;;;12.05;95.09;100903.31;5074990;28;20036;-85
2023/04/28 07:39:50;;;;;;;17.70;11.38;;;;;;;11.74;95.01;100852.81;5040397;28;20464;-85
2023/04/28 07:42:23;;;;;;;16.40;11.57;;;;;;;11.75;94.56;100846.63;5075206;28;20476;-85
2023/04/28 07:44:57;;;;;;;16.60;11.85;;;;;;;11.77;95.81;100845.72;5074716;28;20028;-85
2023/04/28 07:47:32;;;;;;;18.00;11.13;;;;;;;12.05;95.12;100896.25;5074591;28;20033;-85
2023/04/28 07:49:59;;;;;;;17.83;10.70;;;;;;;11.74;96.46;100843.09;5040828;28;20132;-85
2023/04/28 07:52:30;;;;;;;20.58;11.15;;;;;;;11.68;97.78;100840.38;5075168;28;20029;-85
2023/04/28 07:55:01;;;;;;;15.60;10.88;;;;;;;11.90;99.02;100883.78;5056696;28;20036;-85
2023/04/28 07:57:28;;;;;;;16.88;11.32;;;;;;;11.84;99.33;100872.31;5074627;28;20455;-85
2023/04/28 07:59:58;;;;;;;17.70;11.57;;;;;;;11.76;100.00;100859.84;5040427;28;20120;-85
2023/04/28 08:02:27;;;;;;;15.65;11.55;;;;;;;11.67;100.00;100850.97;5056882;28;20412;-85
2023/04/28 08:04:55;;;;;;;14.98;11.63;;;;;;;11.70;100.00;100849.25;5074736;28;20036;-86
2023/04/28 08:07:23;;;;;;;16.02;11.27;;;;;;;11.73;100.00;100851.00;5040284;28;20024;-86
2023/04/28 08:09:51;;;;;;;16.75;11.98;;;;;;;11.94;100.00;100884.69;5039563;28;20025;-86
2023/04/28 08:12:24;;;;;;;15.27;11.73;;;;;;;11.62;100.00;100840.38;5056589;28;20439;-85
2023/04/28 08:14:54;;;;;;;14.60;11.45;;;;;;;11.69;100.00;100844.84;5056404;28;20074;-87
2023/04/28 08:17:22;;;;;;;17.02;11.95;;;;;;;11.95;100.00;100890.03;5040165;28;20063;-87
2023/04/28 08:19:47;;;;;;;18.83;12.25;;;;;;;11.70;100.00;100845.72;5074483;28;20082;-85
2023/04/28 08:22:13;;;;;;;20.17;12.35;;;;;;;12.19;100.00;100920.16;5056250;28;20037;-86
2023/04/28 08:24:47;;;;;;;16.95;12.50;;;;;;;12.09;100.00;100884.81;5056123;28;20407;-85
2023/04/28 08:27:13;;;;;;;16.73;12.18;;;;;;;11.82;100.00;100835.19;5074525;28;20158;-86
2023/04/28 08:29:55;;;;;;;16.58;12.68;;;;;;;11.98;100.00;100863.53;5056057;28;20068;-86
2023/04/28 08:32:23;;;;;;;17.30;12.63;;;;;;;11.91;100.00;100856.47;5076183;28;20029;-86
2023/04/28 08:34:51;;;;;;;15.70;12.63;;;;;;;11.99;100.00;100872.38;5058829;28;20365;-86
2023/04/28 08:37:38;;;;;;;;;;;;;;;;;;;;;
2023/04/28 08:40:08;;;;;;;17.52;12.55;;;;;;;12.09;100.00;100883.91;5072977;28;20133;-86
2023/04/28 08:42:46;;;;;;;17.85;13.23;;;;;;;12.35;100.00;100923.78;5055672;28;20067;-86
2023/04/28 08:45:30;;;;;;;16.25;12.88;;;;;;;12.46;100.00;100927.34;5055884;28;20036;-86
2023/04/28 08:47:58;;;;;;;15.85;12.98;;;;;;;12.32;100.00;100890.19;5073193;28;20040;-85
2023/04/28 08:50:33;;;;;;;16.65;12.70;;;;;;;12.09;100.00;100836.25;5055688;28;20041;-86
2023/04/28 08:53:03;;;;;;;18.27;13.57;;;;;;;12.17;100.00;100851.28;5055704;28;20489;-85
2023/04/28 08:55:34;;;;;;;18.33;13.45;;;;;;;12.43;100.00;100890.25;5056688;28;20035;-85
2023/04/28 08:58:01;;;;;;;17.65;13.63;;;;;;;12.67;100.00;100924.78;5075015;28;20036;-86
2023/04/28 09:00:35;;;;;;;18.25;13.07;;;;;;;12.44;100.00;100892.03;5038839;28;20029;-86
2023/04/28 09:03:11;;;;;;;;;;;;;;;;;;;;;
2023/04/28 09:05:52;;;;;;;18.42;14.18;;;;;;;12.41;100.00;100876.97;5073453;28;20383;-86
2023/04/28 09:08:33;;;;;;;18.40;14.07;;;;;;;12.72;100.00;100938.97;5073304;28;20032;-86
2023/04/28 09:11:10;;;;;;;20.90;15.02;;;;;;;12.38;100.00;100870.81;5055298;28;20027;-86
2023/04/28 09:13:44;;;;;;;22.17;15.25;;;;;;;12.37;100.00;100866.38;5055291;28;20051;-86
2023/04/28 09:16:10;;;;;;;21.70;14.90;;;;;;;12.39;100.00;100848.72;5054790;28;20518;-88
2023/04/28 09:21:59;;;;;;;19.90;14.88;;;;;;;12.75;100.00;100882.38;5065113;28;20044;-88
2023/04/28 09:24:43;;;;;;;20.75;14.95;;;;;;;12.91;100.00;100896.56;5055638;28;20051;-89
2023/04/28 09:28:08;;;;;;;20.40;15.45;;;;;;;13.01;100.00;100908.97;5039579;28;20451;-90
2023/04/28 09:34:03;;;;;;;21.85;14.93;;;;;;;13.06;100.00;100893.97;5044918;28;20040;-88
2023/04/28 09:36:36;;;;;;;19.30;14.70;;;;;;;12.87;100.00;100839.09;5054487;28;20036;-89
2023/04/28 09:39:24;;;;;;;19.15;14.85;;;;;;;13.43;100.00;100928.50;5054890;28;20055;-88
2023/04/28 09:42:10;;;;;;;22.60;14.35;;;;;;;13.07;100.00;100850.63;5017311;28;20044;-88
2023/04/28 09:44:48;;;;;;;;;;;;;;;;;;;;;
2023/04/28 09:47:37;;;;;;;;;;;;;;;;;;;;;
2023/04/28 09:50:31;;;;;;;;;;;;;;;;;;;;;
2023/04/28 09:53:23;;;;;;;;;;;;;;;;;;;;;
2023/04/28 09:56:30;;;;;;;20.10;14.85;;;;;;;13.76;100.00;100930.28;5056357;28;20041;-87
2023/04/28 09:59:04;;;;;;;21.38;15.52;;;;;;;13.30;100.00;100852.44;5054554;28;20078;-87
2023/04/28 10:02:01;;;;;;;;;;;;;;;;;;;;;
2023/04/28 10:04:32;;;;;;;21.38;14.93;;;;;;;13.77;100.00;100932.03;5051438;28;20051;-87
2023/04/28 10:07:16;;;;;;;;;;;;;;;;;;;;;
2023/04/28 10:10:13;;;;;;;20.73;14.45;;;;;;;13.77;100.00;100935.56;5056686;28;20036;-86
2023/04/28 10:12:42;;;;;;;19.45;14.20;;;;;;;13.42;100.00;100871.00;5047868;28;20124;-86
2023/04/28 10:15:41;;;;;;;20.38;15.57;;;;;;;13.80;100.00;100932.03;5038210;28;20067;-87
2023/04/28 10:18:10;;;;;;;23.33;16.52;;;;;;;13.65;100.00;100913.44;5054514;28;20041;-86
2023/04/28 10:21:06;;;;;;;;;;;;;;;;;;;;;
2023/04/28 10:24:08;;;;;;;25.73;18.17;;;;;;;13.47;100.00;100879.84;5072485;28;20033;-86
2023/04/28 10:26:58;;;;;;;30.48;22.02;;;;;;;13.79;100.00;100935.59;5072099;28;20024;-87
2023/04/28 10:29:29;;;;;;;38.50;25.38;;;;;;;13.73;100.00;100924.97;5053511;28;20036;-88
2023/04/28 10:32:24;;;;;;;41.30;27.25;;;;;;;13.81;100.00;100928.50;5054295;28;20047;-88
2023/04/28 10:35:39;;;;;;;;;;;;;;;;;;;;;
2023/04/28 10:38:20;;;;;;;45.97;28.92;;;;;;;13.44;100.00;100847.97;5045454;28;20045;-85
2023/04/28 10:41:15;;;;;;;44.97;29.42;;;;;;;13.68;100.00;100884.25;5051632;28;20050;-86
2023/04/28 10:43:51;;;;;;;46.63;28.98;;;;;;;13.56;100.00;100857.72;5072204;28;20063;-85
2023/04/28 10:46:18;;;;;;;42.88;28.75;;;;;;;13.64;100.00;100863.91;5054751;28;20036;-87
2023/04/28 10:48:50;;;;;;;44.38;29.38;;;;;;;14.02;100.00;100922.25;5037330;28;20481;-85
2023/04/28 10:51:28;;;;;;;44.17;29.73;;;;;;;14.08;100.00;100926.66;5053924;28;20112;-85
2023/04/28 10:54:07;;;;;;;;;;;;;;;;;;;;;
2023/04/28 10:59:37;;;;;;;38.22;27.58;;;;;;;13.97;100.00;100861.16;5071970;28;20029;-87
2023/04/28 11:02:34;;;;;;;;;;;;;;;14.45;100.00;100909.72;5072184;28;20035;-83
2023/04/28 11:05:37;;;;;;;38.83;25.63;;;;;;;14.47;100.00;100905.28;5041364;28;19912;-85
2023/04/28 11:08:18;;;;;;;37.95;25.48;;;;;;;14.63;100.00;100914.09;5059738;28;20066;-86
2023/04/28 11:11:15;;;;;;;30.55;24.63;;;;;;;14.69;100.00;100908.78;5058258;28;20048;-85
2023/04/28 11:13:49;;;;;;;31.05;24.45;;;;;;;14.72;100.00;100900.75;5041198;28;20075;-85
2023/04/28 11:16:22;;;;;;;28.48;23.27;;;;;;;14.70;99.39;100897.22;5057112;28;20074;-85
2023/04/28 11:19:03;;;;;;;30.40;23.75;;;;;;;14.78;99.59;100902.50;5057259;28;20024;-86
2023/04/28 11:21:37;;;;;;;29.05;23.58;;;;;;;14.40;99.82;100830.88;5058072;28;20024;-86
2023/04/28 11:24:26;;;;;;;;;;;;;;;;;;;;;
2023/04/28 11:26:57;;;;;;;25.25;20.60;;;;;;;14.62;98.42;100847.63;5075018;28;20040;-87
2023/04/28 11:29:32;;;;;;;27.75;21.30;;;;;;;14.97;98.10;100901.50;5057690;28;20044;-85
2023/04/28 11:32:12;;;;;;;25.65;20.55;;;;;;;14.65;97.93;100835.22;5057157;28;20119;-86
2023/04/28 11:34:42;;;;;;;24.55;20.50;;;;;;;14.93;98.04;100877.56;5057046;28;20036;-87
2023/04/28 11:37:17;;;;;;;23.33;18.83;;;;;;;14.82;96.81;100845.75;5057675;28;20079;-85
2023/04/28 11:39:49;;;;;;;23.60;18.88;;;;;;;14.74;96.86;100831.59;5056966;28;20029;-86
2023/04/28 11:42:16;;;;;;;20.55;18.08;;;;;;;15.02;96.48;100873.06;5056967;28;20396;-86
2023/04/28 11:44:56;;;;;;;21.15;18.40;;;;;;;14.81;96.39;100841.28;5074950;28;20032;-84
2023/04/28 11:47:33;;;;;;;19.67;16.65;;;;;;;14.99;95.93;100859.81;5074970;28;20109;-86
2023/04/28 11:50:01;;;;;;;18.42;15.95;;;;;;;15.08;95.59;100868.63;5056627;28;20049;-86
2023/04/28 11:52:29;;;;;;;22.15;15.90;;;;;;;14.94;96.19;100842.09;5074701;28;20028;-86
2023/04/28 11:54:59;;;;;;;18.98;16.83;;;;;;;15.08;96.87;100864.19;5056533;28;20480;-86
2023/04/28 11:57:32;;;;;;;22.05;15.95;;;;;;;15.30;95.46;100912.81;5074674;28;20445;-87
2023/04/28 12:00:21;;;;;;;17.38;14.98;;;;;;;15.19;96.31;100899.56;5056848;28;20039;-86
2023/04/28 12:02:51;;;;;;;18.92;15.68;;;;;;;14.97;96.84;100874.88;5075006;28;20028;-86
2023/04/28 12:05:21;;;;;;;19.00;16.38;;;;;;;15.17;97.98;100921.78;5056510;28;20032;-87
2023/04/28 12:07:47;;;;;;;21.33;15.95;;;;;;;15.07;97.95;100909.41;5056405;28;20112;-87
2023/04/28 12:10:24;;;;;;;22.70;16.35;;;;;;;15.00;98.65;100911.25;5039892;28;20124;-86
2023/04/28 12:12:52;;;;;;;17.83;15.30;;;;;;;14.66;99.13;100858.25;5056431;28;20020;-87
2023/04/28 12:15:22;;;;;;;22.88;17.70;;;;;;;14.60;99.87;100854.72;5072814;28;20036;-86
2023/04/28 12:17:50;;;;;;;22.92;18.35;;;;;;;14.56;99.70;100856.53;5056062;28;20048;-85
2023/04/28 12:20:41;;;;;;;25.20;19.10;;;;;;;14.92;100.00;100926.38;5056201;28;20086;-85
2023/04/28 12:23:07;;;;;;;24.60;18.67;;;;;;;14.59;100.00;100877.78;5056588;28;20042;-85
2023/04/28 12:25:35;;;;;;;25.80;18.45;;;;;;;14.53;100.00;100876.03;5074093;28;20107;-86
2023/04/28 12:28:02;;;;;;;24.00;18.98;;;;;;;14.68;100.00;100914.06;5073928;28;20035;-87